sensor_id;sensor_type;location;lat;lon;timestamp;P1;durP1;ratioP1;P2;durP2;ratioP2
4833;SDS011;12895;51.064;7.028;2024-02-26T00:01:39;1.97;;;1.27;;
4833;SDS011;12895;51.064;7.028;2024-02-26T00:04:29;1.50;;;1.40;;
4833;SDS011;12895;51.064;7.028;2024-02-26T00:07:16;1.20;;;1.03;;
4833;SDS011;12895;51.064;7.028;2024-02-26T00:10:04;1.50;;;1.13;;
4833;SDS011;12895;51.064;7.028;2024-02-26T00:12:52;3.13;;;1.30;;
4833;SDS011;12895;51.064;7.028;2024-02-26T00:15:41;2.40;;;1.30;;
4833;SDS011;12895;51.064;7.028;2024-02-26T00:18:28;1.50;;;1.30;;
4833;SDS011;12895;51.064;7.028;2024-02-26T00:21:15;1.37;;;1.27;;
4833;SDS011;12895;51.064;7.028;2024-02-26T00:24:02;1.30;;;1.20;;
4833;SDS011;12895;51.064;7.028;2024-02-26T00:30:24;2.00;;;1.37;;
4833;SDS011;12895;51.064;7.028;2024-02-26T00:33:41;1.33;;;1.13;;
4833;SDS011;12895;51.064;7.028;2024-02-26T00:36:59;1.20;;;1.00;;
4833;SDS011;12895;51.064;7.028;2024-02-26T00:40:16;2.17;;;1.17;;
4833;SDS011;12895;51.064;7.028;2024-02-26T00:43:24;1.70;;;1.10;;
4833;SDS011;12895;51.064;7.028;2024-02-26T00:46:24;1.40;;;1.30;;
4833;SDS011;12895;51.064;7.028;2024-02-26T00:49:24;1.40;;;1.30;;
4833;SDS011;12895;51.064;7.028;2024-02-26T00:52:20;2.20;;;1.37;;
4833;SDS011;12895;51.064;7.028;2024-02-26T00:55:21;1.67;;;1.20;;
4833;SDS011;12895;51.064;7.028;2024-02-26T00:58:24;1.00;;;0.90;;
4833;SDS011;12895;51.064;7.028;2024-02-26T01:01:24;1.87;;;1.20;;
4833;SDS011;12895;51.064;7.028;2024-02-26T01:04:26;1.20;;;1.10;;
4833;SDS011;12895;51.064;7.028;2024-02-26T01:07:28;1.20;;;1.10;;
4833;SDS011;12895;51.064;7.028;2024-02-26T01:10:34;1.47;;;1.00;;
4833;SDS011;12895;51.064;7.028;2024-02-26T01:13:46;1.20;;;1.00;;
4833;SDS011;12895;51.064;7.028;2024-02-26T01:16:50;1.00;;;0.90;;
4833;SDS011;12895;51.064;7.028;2024-02-26T01:19:48;1.20;;;1.07;;
4833;SDS011;12895;51.064;7.028;2024-02-26T01:22:41;1.73;;;1.20;;
4833;SDS011;12895;51.064;7.028;2024-02-26T01:25:42;1.43;;;1.30;;
4833;SDS011;12895;51.064;7.028;2024-02-26T01:28:37;1.20;;;1.07;;
4833;SDS011;12895;51.064;7.028;2024-02-26T01:31:29;1.03;;;0.90;;
4833;SDS011;12895;51.064;7.028;2024-02-26T01:34:25;1.33;;;1.23;;
4833;SDS011;12895;51.064;7.028;2024-02-26T01:37:14;2.07;;;1.30;;
4833;SDS011;12895;51.064;7.028;2024-02-26T01:40:03;2.90;;;1.30;;
4833;SDS011;12895;51.064;7.028;2024-02-26T01:43:01;1.23;;;1.10;;
4833;SDS011;12895;51.064;7.028;2024-02-26T01:46:03;1.40;;;1.00;;
4833;SDS011;12895;51.064;7.028;2024-02-26T01:49:13;1.43;;;0.90;;
4833;SDS011;12895;51.064;7.028;2024-02-26T01:52:06;1.67;;;1.40;;
4833;SDS011;12895;51.064;7.028;2024-02-26T01:54:55;1.30;;;1.00;;
4833;SDS011;12895;51.064;7.028;2024-02-26T01:57:43;1.63;;;1.20;;
4833;SDS011;12895;51.064;7.028;2024-02-26T02:00:40;1.50;;;1.27;;
4833;SDS011;12895;51.064;7.028;2024-02-26T02:03:29;1.10;;;1.00;;
4833;SDS011;12895;51.064;7.028;2024-02-26T02:06:22;1.73;;;1.10;;
4833;SDS011;12895;51.064;7.028;2024-02-26T02:09:19;1.70;;;1.07;;
4833;SDS011;12895;51.064;7.028;2024-02-26T02:12:17;1.40;;;1.20;;
4833;SDS011;12895;51.064;7.028;2024-02-26T02:15:08;1.00;;;0.90;;
4833;SDS011;12895;51.064;7.028;2024-02-26T02:18:04;1.23;;;1.13;;
4833;SDS011;12895;51.064;7.028;2024-02-26T02:21:01;3.93;;;1.63;;
4833;SDS011;12895;51.064;7.028;2024-02-26T02:23:50;1.20;;;1.10;;
4833;SDS011;12895;51.064;7.028;2024-02-26T02:26:40;1.30;;;1.20;;
4833;SDS011;12895;51.064;7.028;2024-02-26T02:29:30;1.80;;;1.20;;
4833;SDS011;12895;51.064;7.028;2024-02-26T02:32:20;1.60;;;1.30;;
4833;SDS011;12895;51.064;7.028;2024-02-26T02:35:11;1.30;;;1.20;;
4833;SDS011;12895;51.064;7.028;2024-02-26T02:38:00;1.30;;;1.07;;
4833;SDS011;12895;51.064;7.028;2024-02-26T02:40:49;1.73;;;1.10;;
4833;SDS011;12895;51.064;7.028;2024-02-26T02:43:36;1.30;;;1.10;;
4833;SDS011;12895;51.064;7.028;2024-02-26T02:46:23;1.27;;;1.17;;
4833;SDS011;12895;51.064;7.028;2024-02-26T02:49:15;1.20;;;1.10;;
4833;SDS011;12895;51.064;7.028;2024-02-26T02:52:03;1.30;;;1.00;;
4833;SDS011;12895;51.064;7.028;2024-02-26T02:54:51;1.33;;;1.03;;
4833;SDS011;12895;51.064;7.028;2024-02-26T02:57:39;1.17;;;0.90;;
4833;SDS011;12895;51.064;7.028;2024-02-26T03:00:28;1.60;;;1.13;;
4833;SDS011;12895;51.064;7.028;2024-02-26T03:03:21;1.30;;;1.20;;
4833;SDS011;12895;51.064;7.028;2024-02-26T03:06:09;1.30;;;1.20;;
4833;SDS011;12895;51.064;7.028;2024-02-26T03:09:04;1.30;;;1.10;;
4833;SDS011;12895;51.064;7.028;2024-02-26T03:11:54;1.77;;;1.00;;
4833;SDS011;12895;51.064;7.028;2024-02-26T03:14:52;1.77;;;1.10;;
4833;SDS011;12895;51.064;7.028;2024-02-26T03:17:39;1.30;;;1.10;;
4833;SDS011;12895;51.064;7.028;2024-02-26T03:20:30;1.50;;;1.40;;
4833;SDS011;12895;51.064;7.028;2024-02-26T03:23:20;1.80;;;1.13;;
4833;SDS011;12895;51.064;7.028;2024-02-26T03:26:07;1.23;;;1.10;;
4833;SDS011;12895;51.064;7.028;2024-02-26T03:29:03;1.37;;;1.10;;
4833;SDS011;12895;51.064;7.028;2024-02-26T03:31:56;1.60;;;1.00;;
4833;SDS011;12895;51.064;7.028;2024-02-26T03:34:42;1.00;;;0.90;;
4833;SDS011;12895;51.064;7.028;2024-02-26T03:37:29;1.50;;;1.10;;
4833;SDS011;12895;51.064;7.028;2024-02-26T03:40:16;1.23;;;1.00;;
4833;SDS011;12895;51.064;7.028;2024-02-26T03:43:05;1.10;;;1.00;;
4833;SDS011;12895;51.064;7.028;2024-02-26T03:45:54;1.40;;;1.20;;
4833;SDS011;12895;51.064;7.028;2024-02-26T03:48:41;1.30;;;1.20;;
4833;SDS011;12895;51.064;7.028;2024-02-26T03:51:34;1.73;;;1.20;;
4833;SDS011;12895;51.064;7.028;2024-02-26T03:54:24;1.57;;;1.30;;
4833;SDS011;12895;51.064;7.028;2024-02-26T03:57:14;4.83;;;1.10;;
4833;SDS011;12895;51.064;7.028;2024-02-26T04:00:01;1.60;;;1.10;;
4833;SDS011;12895;51.064;7.028;2024-02-26T04:02:59;1.50;;;1.00;;
4833;SDS011;12895;51.064;7.028;2024-02-26T04:05:46;2.33;;;1.50;;
4833;SDS011;12895;51.064;7.028;2024-02-26T04:08:34;1.53;;;1.20;;
4833;SDS011;12895;51.064;7.028;2024-02-26T04:11:22;2.80;;;1.43;;
4833;SDS011;12895;51.064;7.028;2024-02-26T04:14:09;1.33;;;1.20;;
4833;SDS011;12895;51.064;7.028;2024-02-26T04:16:57;1.50;;;1.30;;
4833;SDS011;12895;51.064;7.028;2024-02-26T04:19:46;1.30;;;1.20;;
4833;SDS011;12895;51.064;7.028;2024-02-26T04:22:33;1.30;;;1.20;;
4833;SDS011;12895;51.064;7.028;2024-02-26T04:25:20;2.07;;;1.30;;
4833;SDS011;12895;51.064;7.028;2024-02-26T04:28:07;1.20;;;1.10;;
4833;SDS011;12895;51.064;7.028;2024-02-26T04:30:54;1.50;;;1.40;;
4833;SDS011;12895;51.064;7.028;2024-02-26T04:33:41;2.20;;;1.37;;
4833;SDS011;12895;51.064;7.028;2024-02-26T04:36:29;3.10;;;1.53;;
4833;SDS011;12895;51.064;7.028;2024-02-26T04:39:16;1.20;;;1.10;;
4833;SDS011;12895;51.064;7.028;2024-02-26T04:42:04;1.40;;;1.00;;
4833;SDS011;12895;51.064;7.028;2024-02-26T04:44:51;1.50;;;1.40;;
4833;SDS011;12895;51.064;7.028;2024-02-26T04:47:38;1.60;;;1.23;;
4833;SDS011;12895;51.064;7.028;2024-02-26T04:50:24;4.40;;;1.33;;
4833;SDS011;12895;51.064;7.028;2024-02-26T04:53:13;2.20;;;1.37;;
4833;SDS011;12895;51.064;7.028;2024-02-26T04:56:00;1.73;;;1.63;;
4833;SDS011;12895;51.064;7.028;2024-02-26T04:58:47;1.80;;;1.70;;
4833;SDS011;12895;51.064;7.028;2024-02-26T05:01:34;1.50;;;1.40;;
4833;SDS011;12895;51.064;7.028;2024-02-26T05:04:22;1.87;;;1.40;;
4833;SDS011;12895;51.064;7.028;2024-02-26T05:07:09;2.60;;;1.40;;
4833;SDS011;12895;51.064;7.028;2024-02-26T05:09:57;2.90;;;1.30;;
4833;SDS011;12895;51.064;7.028;2024-02-26T05:12:44;2.20;;;1.43;;
4833;SDS011;12895;51.064;7.028;2024-02-26T05:15:31;1.63;;;1.50;;
4833;SDS011;12895;51.064;7.028;2024-02-26T05:18:19;2.00;;;1.33;;
4833;SDS011;12895;51.064;7.028;2024-02-26T05:21:06;2.10;;;1.50;;
4833;SDS011;12895;51.064;7.028;2024-02-26T05:23:52;2.00;;;1.27;;
4833;SDS011;12895;51.064;7.028;2024-02-26T05:26:41;2.10;;;1.60;;
4833;SDS011;12895;51.064;7.028;2024-02-26T05:29:30;2.50;;;1.40;;
4833;SDS011;12895;51.064;7.028;2024-02-26T05:32:18;2.50;;;1.40;;
4833;SDS011;12895;51.064;7.028;2024-02-26T05:35:05;2.13;;;1.93;;
4833;SDS011;12895;51.064;7.028;2024-02-26T05:37:53;2.27;;;1.53;;
4833;SDS011;12895;51.064;7.028;2024-02-26T05:40:40;1.37;;;1.27;;
4833;SDS011;12895;51.064;7.028;2024-02-26T05:43:28;1.87;;;1.20;;
4833;SDS011;12895;51.064;7.028;2024-02-26T05:46:16;1.70;;;1.60;;
4833;SDS011;12895;51.064;7.028;2024-02-26T05:49:05;1.70;;;1.60;;
4833;SDS011;12895;51.064;7.028;2024-02-26T05:51:52;2.70;;;1.30;;
4833;SDS011;12895;51.064;7.028;2024-02-26T05:54:39;1.57;;;1.47;;
4833;SDS011;12895;51.064;7.028;2024-02-26T05:57:26;1.57;;;1.47;;
4833;SDS011;12895;51.064;7.028;2024-02-26T06:00:15;1.93;;;1.73;;
4833;SDS011;12895;51.064;7.028;2024-02-26T06:03:02;1.90;;;1.70;;
4833;SDS011;12895;51.064;7.028;2024-02-26T06:05:50;1.63;;;1.53;;
4833;SDS011;12895;51.064;7.028;2024-02-26T06:08:42;1.47;;;1.37;;
4833;SDS011;12895;51.064;7.028;2024-02-26T06:11:30;2.90;;;1.90;;
4833;SDS011;12895;51.064;7.028;2024-02-26T06:14:23;2.17;;;1.97;;
4833;SDS011;12895;51.064;7.028;2024-02-26T06:17:11;2.50;;;2.17;;
4833;SDS011;12895;51.064;7.028;2024-02-26T06:19:58;2.20;;;2.10;;
4833;SDS011;12895;51.064;7.028;2024-02-26T06:22:46;1.90;;;1.70;;
4833;SDS011;12895;51.064;7.028;2024-02-26T06:25:33;2.07;;;1.90;;
4833;SDS011;12895;51.064;7.028;2024-02-26T06:28:22;2.00;;;1.47;;
4833;SDS011;12895;51.064;7.028;2024-02-26T06:31:13;3.53;;;2.23;;
4833;SDS011;12895;51.064;7.028;2024-02-26T06:34:07;2.40;;;1.83;;
4833;SDS011;12895;51.064;7.028;2024-02-26T06:37:00;1.90;;;1.70;;
4833;SDS011;12895;51.064;7.028;2024-02-26T06:39:56;3.13;;;2.00;;
4833;SDS011;12895;51.064;7.028;2024-02-26T06:42:52;1.97;;;1.80;;
4833;SDS011;12895;51.064;7.028;2024-02-26T06:45:47;2.03;;;1.83;;
4833;SDS011;12895;51.064;7.028;2024-02-26T06:48:39;2.10;;;1.87;;
4833;SDS011;12895;51.064;7.028;2024-02-26T06:51:33;2.57;;;2.33;;
4833;SDS011;12895;51.064;7.028;2024-02-26T06:54:33;2.53;;;1.80;;
4833;SDS011;12895;51.064;7.028;2024-02-26T06:57:22;2.40;;;1.80;;
4833;SDS011;12895;51.064;7.028;2024-02-26T07:00:14;4.13;;;3.93;;
4833;SDS011;12895;51.064;7.028;2024-02-26T07:03:05;2.67;;;2.30;;
4833;SDS011;12895;51.064;7.028;2024-02-26T07:05:58;2.70;;;2.00;;
4833;SDS011;12895;51.064;7.028;2024-02-26T07:08:47;5.03;;;2.67;;
4833;SDS011;12895;51.064;7.028;2024-02-26T07:11:34;3.37;;;2.00;;
4833;SDS011;12895;51.064;7.028;2024-02-26T07:14:21;1.90;;;1.73;;
4833;SDS011;12895;51.064;7.028;2024-02-26T07:17:10;2.83;;;2.50;;
4833;SDS011;12895;51.064;7.028;2024-02-26T07:19:57;2.20;;;2.00;;
4833;SDS011;12895;51.064;7.028;2024-02-26T07:22:44;2.00;;;1.80;;
4833;SDS011;12895;51.064;7.028;2024-02-26T07:25:35;2.10;;;1.90;;
4833;SDS011;12895;51.064;7.028;2024-02-26T07:28:22;2.17;;;1.60;;
4833;SDS011;12895;51.064;7.028;2024-02-26T07:31:09;2.03;;;1.90;;
4833;SDS011;12895;51.064;7.028;2024-02-26T07:33:56;2.57;;;2.37;;
4833;SDS011;12895;51.064;7.028;2024-02-26T07:36:43;2.27;;;1.87;;
4833;SDS011;12895;51.064;7.028;2024-02-26T07:39:31;2.33;;;2.13;;
4833;SDS011;12895;51.064;7.028;2024-02-26T07:42:19;3.10;;;2.20;;
4833;SDS011;12895;51.064;7.028;2024-02-26T07:45:06;2.70;;;2.17;;
4833;SDS011;12895;51.064;7.028;2024-02-26T07:47:54;2.70;;;2.50;;
4833;SDS011;12895;51.064;7.028;2024-02-26T07:50:41;4.60;;;3.07;;
4833;SDS011;12895;51.064;7.028;2024-02-26T07:53:28;2.20;;;2.00;;
4833;SDS011;12895;51.064;7.028;2024-02-26T07:56:15;2.53;;;2.33;;
4833;SDS011;12895;51.064;7.028;2024-02-26T07:59:05;2.53;;;2.20;;
4833;SDS011;12895;51.064;7.028;2024-02-26T08:01:53;2.20;;;2.00;;
4833;SDS011;12895;51.064;7.028;2024-02-26T08:04:40;3.80;;;2.43;;
4833;SDS011;12895;51.064;7.028;2024-02-26T08:07:27;3.30;;;2.70;;
4833;SDS011;12895;51.064;7.028;2024-02-26T08:10:14;2.30;;;2.10;;
4833;SDS011;12895;51.064;7.028;2024-02-26T08:13:01;2.70;;;2.50;;
4833;SDS011;12895;51.064;7.028;2024-02-26T08:15:52;2.00;;;1.70;;
4833;SDS011;12895;51.064;7.028;2024-02-26T08:18:40;2.10;;;1.90;;
4833;SDS011;12895;51.064;7.028;2024-02-26T08:21:27;3.27;;;2.40;;
4833;SDS011;12895;51.064;7.028;2024-02-26T08:24:14;2.90;;;2.30;;
4833;SDS011;12895;51.064;7.028;2024-02-26T08:27:01;3.20;;;2.00;;
4833;SDS011;12895;51.064;7.028;2024-02-26T08:29:51;2.40;;;2.20;;
4833;SDS011;12895;51.064;7.028;2024-02-26T08:32:47;2.73;;;2.53;;
4833;SDS011;12895;51.064;7.028;2024-02-26T08:35:49;2.70;;;2.47;;
4833;SDS011;12895;51.064;7.028;2024-02-26T08:38:46;2.70;;;2.40;;
4833;SDS011;12895;51.064;7.028;2024-02-26T08:41:46;3.07;;;2.60;;
4833;SDS011;12895;51.064;7.028;2024-02-26T08:44:42;3.87;;;3.47;;
4833;SDS011;12895;51.064;7.028;2024-02-26T08:47:37;2.70;;;2.07;;
4833;SDS011;12895;51.064;7.028;2024-02-26T08:50:33;2.47;;;2.20;;
4833;SDS011;12895;51.064;7.028;2024-02-26T08:53:23;2.33;;;2.13;;
4833;SDS011;12895;51.064;7.028;2024-02-26T08:56:14;2.37;;;2.17;;
4833;SDS011;12895;51.064;7.028;2024-02-26T08:59:03;2.20;;;2.00;;
4833;SDS011;12895;51.064;7.028;2024-02-26T09:01:50;2.30;;;2.10;;
4833;SDS011;12895;51.064;7.028;2024-02-26T09:04:39;2.60;;;2.40;;
4833;SDS011;12895;51.064;7.028;2024-02-26T09:07:28;2.43;;;2.23;;
4833;SDS011;12895;51.064;7.028;2024-02-26T09:10:15;2.80;;;2.57;;
4833;SDS011;12895;51.064;7.028;2024-02-26T09:13:02;4.60;;;2.37;;
4833;SDS011;12895;51.064;7.028;2024-02-26T09:15:49;2.17;;;1.97;;
4833;SDS011;12895;51.064;7.028;2024-02-26T09:18:36;2.80;;;2.53;;
4833;SDS011;12895;51.064;7.028;2024-02-26T09:21:23;4.10;;;2.63;;
4833;SDS011;12895;51.064;7.028;2024-02-26T09:24:12;2.67;;;2.20;;
4833;SDS011;12895;51.064;7.028;2024-02-26T09:26:59;2.30;;;2.20;;
4833;SDS011;12895;51.064;7.028;2024-02-26T09:29:46;2.67;;;2.40;;
4833;SDS011;12895;51.064;7.028;2024-02-26T09:32:33;2.57;;;2.13;;
4833;SDS011;12895;51.064;7.028;2024-02-26T09:35:20;2.50;;;2.30;;
4833;SDS011;12895;51.064;7.028;2024-02-26T09:38:07;2.70;;;2.50;;
4833;SDS011;12895;51.064;7.028;2024-02-26T09:40:56;2.60;;;2.40;;
4833;SDS011;12895;51.064;7.028;2024-02-26T09:43:44;4.43;;;2.70;;
4833;SDS011;12895;51.064;7.028;2024-02-26T09:46:32;3.83;;;3.50;;
4833;SDS011;12895;51.064;7.028;2024-02-26T09:49:20;2.30;;;2.10;;
4833;SDS011;12895;51.064;7.028;2024-02-26T09:52:10;6.60;;;2.37;;
4833;SDS011;12895;51.064;7.028;2024-02-26T09:54:57;2.50;;;2.30;;
4833;SDS011;12895;51.064;7.028;2024-02-26T09:57:46;2.90;;;2.13;;
4833;SDS011;12895;51.064;7.028;2024-02-26T10:00:34;2.83;;;2.57;;
4833;SDS011;12895;51.064;7.028;2024-02-26T10:03:25;3.23;;;2.43;;
4833;SDS011;12895;51.064;7.028;2024-02-26T10:06:17;2.70;;;2.50;;
4833;SDS011;12895;51.064;7.028;2024-02-26T10:09:04;2.73;;;2.53;;
4833;SDS011;12895;51.064;7.028;2024-02-26T10:11:55;3.33;;;2.43;;
4833;SDS011;12895;51.064;7.028;2024-02-26T10:14:43;4.10;;;2.60;;
4833;SDS011;12895;51.064;7.028;2024-02-26T10:17:30;2.93;;;2.47;;
4833;SDS011;12895;51.064;7.028;2024-02-26T10:20:18;2.53;;;2.33;;
4833;SDS011;12895;51.064;7.028;2024-02-26T10:23:07;3.20;;;2.90;;
4833;SDS011;12895;51.064;7.028;2024-02-26T10:25:56;3.03;;;2.73;;
4833;SDS011;12895;51.064;7.028;2024-02-26T10:28:51;2.87;;;2.33;;
4833;SDS011;12895;51.064;7.028;2024-02-26T10:31:42;2.70;;;2.50;;
4833;SDS011;12895;51.064;7.028;2024-02-26T10:34:29;3.53;;;2.77;;
4833;SDS011;12895;51.064;7.028;2024-02-26T10:37:17;2.80;;;2.60;;
4833;SDS011;12895;51.064;7.028;2024-02-26T10:40:05;3.30;;;3.00;;
4833;SDS011;12895;51.064;7.028;2024-02-26T10:42:56;3.20;;;2.77;;
4833;SDS011;12895;51.064;7.028;2024-02-26T10:45:45;3.57;;;3.27;;
4833;SDS011;12895;51.064;7.028;2024-02-26T10:48:34;3.67;;;3.40;;
4833;SDS011;12895;51.064;7.028;2024-02-26T10:51:24;3.80;;;3.50;;
4833;SDS011;12895;51.064;7.028;2024-02-26T10:54:15;3.40;;;3.10;;
4833;SDS011;12895;51.064;7.028;2024-02-26T10:57:03;3.97;;;3.60;;
4833;SDS011;12895;51.064;7.028;2024-02-26T10:59:51;3.33;;;3.07;;
4833;SDS011;12895;51.064;7.028;2024-02-26T11:02:40;5.17;;;2.90;;
4833;SDS011;12895;51.064;7.028;2024-02-26T11:05:29;3.90;;;3.30;;
4833;SDS011;12895;51.064;7.028;2024-02-26T11:08:17;4.47;;;3.13;;
4833;SDS011;12895;51.064;7.028;2024-02-26T11:11:05;3.40;;;3.10;;
4833;SDS011;12895;51.064;7.028;2024-02-26T11:13:53;2.50;;;2.30;;
4833;SDS011;12895;51.064;7.028;2024-02-26T11:16:41;3.70;;;3.13;;
4833;SDS011;12895;51.064;7.028;2024-02-26T11:19:28;5.63;;;2.60;;
4833;SDS011;12895;51.064;7.028;2024-02-26T11:22:19;3.43;;;2.50;;
4833;SDS011;12895;51.064;7.028;2024-02-26T11:25:07;3.40;;;3.10;;
4833;SDS011;12895;51.064;7.028;2024-02-26T11:27:56;3.00;;;2.60;;
4833;SDS011;12895;51.064;7.028;2024-02-26T11:30:48;3.27;;;2.77;;
4833;SDS011;12895;51.064;7.028;2024-02-26T11:33:36;2.90;;;2.70;;
4833;SDS011;12895;51.064;7.028;2024-02-26T11:36:23;2.70;;;2.50;;
4833;SDS011;12895;51.064;7.028;2024-02-26T11:39:12;3.03;;;2.60;;
4833;SDS011;12895;51.064;7.028;2024-02-26T11:42:04;2.63;;;2.43;;
4833;SDS011;12895;51.064;7.028;2024-02-26T11:44:53;3.13;;;2.83;;
4833;SDS011;12895;51.064;7.028;2024-02-26T11:47:41;3.30;;;2.43;;
4833;SDS011;12895;51.064;7.028;2024-02-26T11:50:34;3.53;;;2.60;;
4833;SDS011;12895;51.064;7.028;2024-02-26T11:53:23;3.40;;;3.10;;
4833;SDS011;12895;51.064;7.028;2024-02-26T11:56:23;2.43;;;2.23;;
4833;SDS011;12895;51.064;7.028;2024-02-26T11:59:12;4.20;;;2.93;;
4833;SDS011;12895;51.064;7.028;2024-02-26T12:02:43;3.20;;;2.90;;
4833;SDS011;12895;51.064;7.028;2024-02-26T12:05:32;3.40;;;3.13;;
4833;SDS011;12895;51.064;7.028;2024-02-26T12:08:20;4.37;;;3.97;;
4833;SDS011;12895;51.064;7.028;2024-02-26T12:11:14;3.60;;;3.30;;
4833;SDS011;12895;51.064;7.028;2024-02-26T12:14:02;3.83;;;3.53;;
4833;SDS011;12895;51.064;7.028;2024-02-26T12:16:49;3.60;;;3.30;;
4833;SDS011;12895;51.064;7.028;2024-02-26T12:19:38;3.80;;;3.30;;
4833;SDS011;12895;51.064;7.028;2024-02-26T12:22:25;3.40;;;3.10;;
4833;SDS011;12895;51.064;7.028;2024-02-26T12:25:12;3.57;;;3.30;;
4833;SDS011;12895;51.064;7.028;2024-02-26T12:28:00;3.20;;;2.80;;
4833;SDS011;12895;51.064;7.028;2024-02-26T12:30:48;4.13;;;3.57;;
4833;SDS011;12895;51.064;7.028;2024-02-26T12:33:35;4.30;;;3.90;;
4833;SDS011;12895;51.064;7.028;2024-02-26T12:36:22;4.00;;;3.57;;
4833;SDS011;12895;51.064;7.028;2024-02-26T12:39:09;3.83;;;3.17;;
4833;SDS011;12895;51.064;7.028;2024-02-26T12:41:57;4.00;;;3.30;;
4833;SDS011;12895;51.064;7.028;2024-02-26T12:44:44;4.60;;;4.20;;
4833;SDS011;12895;51.064;7.028;2024-02-26T12:47:33;4.90;;;4.07;;
4833;SDS011;12895;51.064;7.028;2024-02-26T12:50:22;5.07;;;4.17;;
4833;SDS011;12895;51.064;7.028;2024-02-26T12:53:09;6.63;;;4.70;;
4833;SDS011;12895;51.064;7.028;2024-02-26T12:55:58;7.70;;;5.40;;
4833;SDS011;12895;51.064;7.028;2024-02-26T12:58:45;4.87;;;4.40;;
4833;SDS011;12895;51.064;7.028;2024-02-26T13:01:33;4.37;;;3.97;;
4833;SDS011;12895;51.064;7.028;2024-02-26T13:04:21;6.00;;;4.70;;
4833;SDS011;12895;51.064;7.028;2024-02-26T13:07:08;5.80;;;5.00;;
4833;SDS011;12895;51.064;7.028;2024-02-26T13:09:56;4.77;;;4.37;;
4833;SDS011;12895;51.064;7.028;2024-02-26T13:12:43;5.70;;;5.20;;
4833;SDS011;12895;51.064;7.028;2024-02-26T13:15:30;5.87;;;4.80;;
4833;SDS011;12895;51.064;7.028;2024-02-26T13:18:18;5.40;;;4.87;;
4833;SDS011;12895;51.064;7.028;2024-02-26T13:21:12;5.87;;;5.37;;
4833;SDS011;12895;51.064;7.028;2024-02-26T13:24:00;6.27;;;5.50;;
4833;SDS011;12895;51.064;7.028;2024-02-26T13:26:47;6.10;;;5.50;;
4833;SDS011;12895;51.064;7.028;2024-02-26T13:29:41;5.70;;;5.20;;
4833;SDS011;12895;51.064;7.028;2024-02-26T13:32:28;6.77;;;5.23;;
4833;SDS011;12895;51.064;7.028;2024-02-26T13:35:16;5.77;;;5.17;;
4833;SDS011;12895;51.064;7.028;2024-02-26T13:38:05;6.47;;;5.87;;
4833;SDS011;12895;51.064;7.028;2024-02-26T13:40:52;8.43;;;5.70;;
4833;SDS011;12895;51.064;7.028;2024-02-26T13:43:40;7.00;;;6.40;;
4833;SDS011;12895;51.064;7.028;2024-02-26T13:46:27;8.57;;;6.07;;
4833;SDS011;12895;51.064;7.028;2024-02-26T13:49:14;6.43;;;5.83;;
4833;SDS011;12895;51.064;7.028;2024-02-26T13:52:01;6.43;;;5.87;;
4833;SDS011;12895;51.064;7.028;2024-02-26T13:54:50;6.90;;;6.20;;
4833;SDS011;12895;51.064;7.028;2024-02-26T13:57:37;7.60;;;6.90;;
4833;SDS011;12895;51.064;7.028;2024-02-26T14:00:24;9.33;;;6.30;;
4833;SDS011;12895;51.064;7.028;2024-02-26T14:03:11;8.53;;;7.70;;
4833;SDS011;12895;51.064;7.028;2024-02-26T14:05:58;8.60;;;7.80;;
4833;SDS011;12895;51.064;7.028;2024-02-26T14:08:45;8.33;;;7.33;;
4833;SDS011;12895;51.064;7.028;2024-02-26T14:11:33;8.10;;;7.40;;
4833;SDS011;12895;51.064;7.028;2024-02-26T14:14:21;8.60;;;7.70;;
4833;SDS011;12895;51.064;7.028;2024-02-26T14:17:08;10.93;;;7.87;;
4833;SDS011;12895;51.064;7.028;2024-02-26T14:19:55;8.97;;;7.90;;
4833;SDS011;12895;51.064;7.028;2024-02-26T14:22:42;8.87;;;7.97;;
4833;SDS011;12895;51.064;7.028;2024-02-26T14:25:29;9.43;;;8.40;;
4833;SDS011;12895;51.064;7.028;2024-02-26T14:28:18;9.23;;;8.03;;
4833;SDS011;12895;51.064;7.028;2024-02-26T14:31:06;9.47;;;8.57;;
4833;SDS011;12895;51.064;7.028;2024-02-26T14:33:55;9.03;;;8.13;;
4833;SDS011;12895;51.064;7.028;2024-02-26T14:36:42;11.10;;;9.80;;
4833;SDS011;12895;51.064;7.028;2024-02-26T14:39:29;9.40;;;8.40;;
4833;SDS011;12895;51.064;7.028;2024-02-26T14:42:17;10.43;;;9.40;;
4833;SDS011;12895;51.064;7.028;2024-02-26T14:45:06;8.30;;;7.47;;
4833;SDS011;12895;51.064;7.028;2024-02-26T14:47:54;10.40;;;9.30;;
4833;SDS011;12895;51.064;7.028;2024-02-26T14:50:42;10.07;;;8.63;;
4833;SDS011;12895;51.064;7.028;2024-02-26T14:53:28;12.50;;;10.83;;
4833;SDS011;12895;51.064;7.028;2024-02-26T14:56:16;10.50;;;9.50;;
4833;SDS011;12895;51.064;7.028;2024-02-26T14:59:03;11.70;;;10.60;;
4833;SDS011;12895;51.064;7.028;2024-02-26T15:01:51;12.23;;;10.90;;
4833;SDS011;12895;51.064;7.028;2024-02-26T15:04:38;11.57;;;10.00;;
4833;SDS011;12895;51.064;7.028;2024-02-26T15:07:25;12.93;;;11.30;;
4833;SDS011;12895;51.064;7.028;2024-02-26T15:10:12;13.70;;;10.50;;
4833;SDS011;12895;51.064;7.028;2024-02-26T15:12:59;11.33;;;10.23;;
4833;SDS011;12895;51.064;7.028;2024-02-26T15:15:46;11.27;;;10.17;;
4833;SDS011;12895;51.064;7.028;2024-02-26T15:18:38;12.97;;;10.40;;
4833;SDS011;12895;51.064;7.028;2024-02-26T15:21:25;12.57;;;10.70;;
4833;SDS011;12895;51.064;7.028;2024-02-26T15:24:12;11.30;;;10.20;;
4833;SDS011;12895;51.064;7.028;2024-02-26T15:27:01;9.83;;;8.80;;
4833;SDS011;12895;51.064;7.028;2024-02-26T15:29:49;10.67;;;9.67;;
4833;SDS011;12895;51.064;7.028;2024-02-26T15:32:41;11.70;;;10.50;;
4833;SDS011;12895;51.064;7.028;2024-02-26T15:35:30;11.07;;;9.97;;
4833;SDS011;12895;51.064;7.028;2024-02-26T15:38:18;11.40;;;10.20;;
4833;SDS011;12895;51.064;7.028;2024-02-26T15:41:10;10.80;;;9.80;;
4833;SDS011;12895;51.064;7.028;2024-02-26T15:43:58;11.80;;;10.20;;
4833;SDS011;12895;51.064;7.028;2024-02-26T15:46:46;12.00;;;10.87;;
4833;SDS011;12895;51.064;7.028;2024-02-26T15:49:33;13.87;;;12.40;;
4833;SDS011;12895;51.064;7.028;2024-02-26T15:52:21;11.70;;;10.57;;
4833;SDS011;12895;51.064;7.028;2024-02-26T15:55:10;13.87;;;11.97;;
4833;SDS011;12895;51.064;7.028;2024-02-26T15:57:58;11.00;;;10.03;;
4833;SDS011;12895;51.064;7.028;2024-02-26T16:00:45;12.77;;;11.57;;
4833;SDS011;12895;51.064;7.028;2024-02-26T16:03:36;11.73;;;10.53;;
4833;SDS011;12895;51.064;7.028;2024-02-26T16:06:25;12.17;;;10.87;;
4833;SDS011;12895;51.064;7.028;2024-02-26T16:09:19;11.40;;;10.30;;
4833;SDS011;12895;51.064;7.028;2024-02-26T16:12:08;11.30;;;10.30;;
4833;SDS011;12895;51.064;7.028;2024-02-26T16:15:03;12.60;;;11.40;;
4833;SDS011;12895;51.064;7.028;2024-02-26T16:17:50;12.37;;;11.07;;
4833;SDS011;12895;51.064;7.028;2024-02-26T16:20:43;16.07;;;11.10;;
4833;SDS011;12895;51.064;7.028;2024-02-26T16:23:30;12.40;;;11.30;;
4833;SDS011;12895;51.064;7.028;2024-02-26T16:26:20;14.33;;;12.83;;
4833;SDS011;12895;51.064;7.028;2024-02-26T16:29:07;10.57;;;9.67;;
4833;SDS011;12895;51.064;7.028;2024-02-26T16:32:19;14.23;;;11.37;;
4833;SDS011;12895;51.064;7.028;2024-02-26T16:35:10;11.57;;;10.47;;
4833;SDS011;12895;51.064;7.028;2024-02-26T16:38:02;13.17;;;11.87;;
4833;SDS011;12895;51.064;7.028;2024-02-26T16:40:55;12.77;;;11.67;;
4833;SDS011;12895;51.064;7.028;2024-02-26T16:43:44;15.33;;;13.73;;
4833;SDS011;12895;51.064;7.028;2024-02-26T16:46:40;14.23;;;12.20;;
4833;SDS011;12895;51.064;7.028;2024-02-26T16:49:31;13.67;;;12.27;;
4833;SDS011;12895;51.064;7.028;2024-02-26T16:52:21;14.33;;;13.00;;
4833;SDS011;12895;51.064;7.028;2024-02-26T16:55:11;12.40;;;11.20;;
4833;SDS011;12895;51.064;7.028;2024-02-26T16:57:59;17.10;;;12.63;;
4833;SDS011;12895;51.064;7.028;2024-02-26T17:00:51;12.53;;;11.23;;
4833;SDS011;12895;51.064;7.028;2024-02-26T17:03:38;13.20;;;12.00;;
4833;SDS011;12895;51.064;7.028;2024-02-26T17:06:25;11.93;;;10.73;;
4833;SDS011;12895;51.064;7.028;2024-02-26T17:09:12;10.90;;;9.90;;
4833;SDS011;12895;51.064;7.028;2024-02-26T17:11:59;12.50;;;11.30;;
4833;SDS011;12895;51.064;7.028;2024-02-26T17:14:46;10.43;;;9.43;;
4833;SDS011;12895;51.064;7.028;2024-02-26T17:17:37;11.20;;;10.00;;
4833;SDS011;12895;51.064;7.028;2024-02-26T17:20:24;13.50;;;12.10;;